Time;durP1;ratioP1;P1;durP2;ratioP2;P2;SDS_P1;SDS_P2;PMS_P1;PMS_P2;Temp;Humidity;BMP_temperature;BMP_pressure;BME280_temperature;BME280_humidity;BME280_pressure;Samples;Min_cycle;Max_cycle;Signal;HPM_P1;HPM_P2
2022/02/28 00:02:00;;;;;;;13.70;7.43;;;-1.70;99.90;;;;;;5021544;28;20025;-71
2022/02/28 00:04:26;;;;;;;13.20;7.47;;;-1.60;99.90;;;;;;5023247;28;20817;-71
2022/02/28 00:06:54;;;;;;;12.75;7.63;;;-1.60;99.90;;;;;;5021156;28;20026;-72
2022/02/28 00:09:20;;;;;;;11.18;6.72;;;-1.60;99.90;;;;;;5021055;28;20057;-72
2022/02/28 00:11:46;;;;;;;15.43;7.97;;;-1.60;99.90;;;;;;5023345;28;20136;-72
2022/02/28 00:14:11;;;;;;;13.80;7.82;;;-1.70;99.90;;;;;;5021530;28;20084;-72
2022/02/28 00:16:37;;;;;;;14.30;7.28;;;-1.70;99.90;;;;;;5022316;28;20112;-71
2022/02/28 00:19:03;;;;;;;13.23;7.97;;;-1.70;99.90;;;;;;5021970;28;20034;-70
2022/02/28 00:21:29;;;;;;;15.25;7.45;;;-1.70;99.90;;;;;;5024153;28;20121;-72
2022/02/28 00:23:55;;;;;;;13.75;7.28;;;-1.70;99.90;;;;;;5023069;28;20495;-71
2022/02/28 00:26:20;;;;;;;15.88;7.40;;;-1.80;99.90;;;;;;5019740;28;20153;-71
2022/02/28 00:28:46;;;;;;;16.38;8.07;;;-1.80;99.90;;;;;;5023010;28;20459;-71
2022/02/28 00:31:12;;;;;;;16.15;8.77;;;-1.80;99.90;;;;;;5019611;28;20030;-71
2022/02/28 00:33:37;;;;;;;14.95;8.05;;;-1.80;99.90;;;;;;5021695;28;20096;-71
2022/02/28 00:36:04;;;;;;;12.73;7.78;;;-1.80;99.90;;;;;;5019942;28;20030;-70
2022/02/28 00:38:30;;;;;;;16.30;8.15;;;-1.80;99.90;;;;;;5019870;28;20017;-71
2022/02/28 00:40:56;;;;;;;15.93;9.38;;;-1.80;99.90;;;;;;5021528;28;20110;-71
2022/02/28 00:43:21;;;;;;;16.02;9.10;;;-1.80;99.90;;;;;;5021751;28;20116;-70
2022/02/28 00:45:47;;;;;;;14.80;7.85;;;-1.80;99.90;;;;;;5022072;28;20029;-72
2022/02/28 00:48:13;;;;;;;17.83;8.65;;;-1.80;99.90;;;;;;5021115;28;20057;-72
2022/02/28 00:50:39;;;;;;;17.30;8.40;;;-1.90;99.90;;;;;;5016863;28;20443;-72
2022/02/28 00:53:04;;;;;;;16.38;8.73;;;-1.80;99.90;;;;;;5025428;28;20090;-71
2022/02/28 00:55:31;;;;;;;17.80;8.13;;;-1.80;99.90;;;;;;5033277;28;20033;-72
2022/02/28 00:57:56;;;;;;;18.67;9.02;;;-1.80;99.90;;;;;;5032507;28;20033;-72
2022/02/28 01:00:22;;;;;;;15.65;9.05;;;-1.80;99.90;;;;;;5031663;28;20033;-70
2022/02/28 01:02:48;;;;;;;14.55;8.00;;;-1.80;99.90;;;;;;5032612;28;20033;-71
2022/02/28 01:05:17;;;;;;;18.08;8.52;;;-1.80;99.90;;;;;;5031364;28;20030;-70
2022/02/28 01:07:43;;;;;;;14.85;8.77;;;-1.80;99.90;;;;;;5032126;28;20049;-71
2022/02/28 01:10:10;;;;;;;16.20;8.40;;;-1.80;99.90;;;;;;5031996;28;20033;-71
2022/02/28 01:12:37;;;;;;;13.07;8.10;;;-1.80;99.90;;;;;;5032408;28;20045;-72
2022/02/28 01:15:04;;;;;;;14.90;8.40;;;-1.90;99.90;;;;;;5031319;28;20054;-70
2022/02/28 01:17:30;;;;;;;16.60;8.05;;;-1.90;99.90;;;;;;5032670;28;20444;-72
2022/02/28 01:19:57;;;;;;;16.23;8.52;;;-1.90;99.90;;;;;;5032711;28;20104;-72
2022/02/28 01:22:23;;;;;;;14.10;7.60;;;-1.90;99.90;;;;;;5031103;28;20388;-72
2022/02/28 01:24:49;;;;;;;13.55;7.43;;;-1.90;99.90;;;;;;5031244;28;20095;-71
2022/02/28 01:27:14;;;;;;;16.67;8.43;;;-1.90;99.90;;;;;;5031890;28;20033;-72
2022/02/28 01:29:40;;;;;;;15.88;8.65;;;-2.00;99.90;;;;;;5031845;28;20037;-71
2022/02/28 01:32:06;;;;;;;15.55;8.65;;;-2.00;99.90;;;;;;5031500;28;20034;-71
2022/02/28 01:34:32;;;;;;;14.60;8.55;;;-2.00;99.90;;;;;;5032176;28;20037;-72
2022/02/28 01:36:57;;;;;;;16.98;7.95;;;-2.00;99.90;;;;;;5032303;28;20040;-71
2022/02/28 01:39:23;;;;;;;13.80;7.22;;;-2.00;99.90;;;;;;5031729;28;20470;-72
2022/02/28 01:41:49;;;;;;;16.73;8.32;;;-2.00;99.90;;;;;;5032911;28;20083;-72
2022/02/28 01:44:14;;;;;;;15.18;8.73;;;-2.10;99.90;;;;;;5022218;28;20064;-73
2022/02/28 01:46:40;;;;;;;17.85;8.77;;;-2.20;99.90;;;;;;5023913;28;20033;-72
2022/02/28 01:49:07;;;;;;;14.20;8.20;;;-2.20;99.90;;;;;;5035323;28;20040;-73
2022/02/28 01:51:37;;;;;;;16.33;8.40;;;-2.30;99.90;;;;;;5031956;28;20117;-72
2022/02/28 01:54:03;;;;;;;18.88;9.00;;;-2.30;99.90;;;;;;5032104;28;20048;-72
2022/02/28 01:56:29;;;;;;;17.92;7.97;;;-2.30;99.90;;;;;;5031532;28;20063;-71
2022/02/28 01:58:55;;;;;;;15.07;8.70;;;-2.30;99.90;;;;;;5031317;28;20053;-72
2022/02/28 02:01:21;;;;;;;13.90;7.82;;;-2.10;99.90;;;;;;5032144;28;20076;-71
2022/02/28 02:03:46;;;;;;;14.73;8.65;;;-2.00;99.90;;;;;;5035426;28;20470;-71
2022/02/28 02:06:12;;;;;;;17.08;7.35;;;-2.00;99.90;;;;;;5035790;28;20105;-72
2022/02/28 02:08:39;;;;;;;12.10;7.57;;;-2.00;99.90;;;;;;5036958;28;20029;-71
2022/02/28 02:11:05;;;;;;;14.18;8.32;;;-2.00;99.90;;;;;;5036303;28;20356;-72
2022/02/28 02:13:31;;;;;;;15.40;8.15;;;-2.00;99.90;;;;;;5037224;28;20174;-71
2022/02/28 02:15:58;;;;;;;17.88;7.97;;;-2.10;99.90;;;;;;5037556;28;20048;-71
2022/02/28 02:18:24;;;;;;;18.35;8.90;;;-2.10;99.90;;;;;;5035100;28;20386;-72
2022/02/28 02:20:50;;;;;;;14.35;8.00;;;-2.20;99.90;;;;;;5036099;28;20140;-72
2022/02/28 02:23:16;;;;;;;16.35;8.93;;;-2.10;99.90;;;;;;5035005;28;20034;-71
2022/02/28 02:25:43;;;;;;;14.65;8.48;;;-2.10;99.90;;;;;;5035520;28;20382;-72
2022/02/28 02:28:13;;;;;;;18.15;8.38;;;-2.10;99.90;;;;;;5034975;28;20057;-71
2022/02/28 02:30:38;;;;;;;18.95;9.20;;;-2.10;99.90;;;;;;5035393;28;20130;-71
2022/02/28 02:33:05;;;;;;;15.30;7.93;;;-2.10;99.90;;;;;;5035010;28;20061;-70
2022/02/28 02:35:31;;;;;;;14.00;8.07;;;-2.20;99.90;;;;;;5035191;28;20037;-71
2022/02/28 02:37:57;;;;;;;14.45;8.20;;;-2.20;99.90;;;;;;5035348;28;20032;-71
2022/02/28 02:40:23;;;;;;;13.18;7.68;;;-2.30;99.90;;;;;;5034376;28;20030;-71
2022/02/28 02:42:49;;;;;;;16.25;8.90;;;-2.40;99.90;;;;;;5034941;28;20032;-71
2022/02/28 02:45:15;;;;;;;15.85;8.40;;;-2.40;99.90;;;;;;5016265;28;20030;-71
2022/02/28 02:47:40;;;;;;;15.38;8.68;;;-2.40;99.90;;;;;;5015521;28;20467;-71
2022/02/28 02:50:07;;;;;;;17.20;8.80;;;-2.50;99.90;;;;;;5024544;28;20030;-70
2022/02/28 02:52:33;;;;;;;18.20;9.25;;;-2.50;99.90;;;;;;5034945;28;20331;-71
2022/02/28 02:54:59;;;;;;;17.58;9.77;;;-2.50;99.90;;;;;;5035124;28;20022;-70
2022/02/28 02:57:25;;;;;;;16.35;9.35;;;-2.60;99.90;;;;;;5034148;28;20095;-70
2022/02/28 02:59:50;;;;;;;18.60;9.48;;;-2.60;99.90;;;;;;5034998;28;20060;-71
2022/02/28 03:02:16;;;;;;;15.50;8.73;;;-2.60;99.90;;;;;;5034044;28;20060;-70
2022/02/28 03:04:42;;;;;;;16.02;8.60;;;-2.60;99.90;;;;;;5034781;28;20096;-71
2022/02/28 03:07:19;;;;;;;15.75;8.73;;;-2.60;99.90;;;;;;5034597;28;20163;-71
2022/02/28 03:09:45;;;;;;;15.82;9.10;;;-2.60;99.90;;;;;;5034527;28;20105;-71
2022/02/28 03:12:12;;;;;;;16.77;9.18;;;-2.60;99.90;;;;;;5033466;28;20033;-70
2022/02/28 03:14:37;;;;;;;16.27;9.05;;;-2.60;99.90;;;;;;5034226;28;20061;-70
2022/02/28 03:17:04;;;;;;;18.60;8.75;;;-2.60;99.90;;;;;;5034827;28;20462;-71
2022/02/28 03:19:30;;;;;;;14.63;8.63;;;-2.60;99.90;;;;;;5034142;28;20483;-71
2022/02/28 03:21:55;;;;;;;15.43;9.07;;;-2.60;99.90;;;;;;5034396;28;20042;-72
2022/02/28 03:24:21;;;;;;;15.57;8.63;;;-2.70;99.90;;;;;;5034236;28;20044;-70
2022/02/28 03:26:47;;;;;;;22.15;9.10;;;-2.70;99.90;;;;;;5034040;28;20382;-70
2022/02/28 03:29:12;;;;;;;18.65;9.50;;;-2.70;99.90;;;;;;5033831;28;20455;-70
2022/02/28 03:31:38;;;;;;;13.88;8.55;;;-2.70;99.90;;;;;;5034340;28;20038;-71
2022/02/28 03:34:04;;;;;;;15.25;8.95;;;-2.70;99.90;;;;;;5034298;28;20029;-71
2022/02/28 03:36:29;;;;;;;13.85;8.57;;;-2.70;99.90;;;;;;5033814;28;20034;-71
2022/02/28 03:38:56;;;;;;;21.33;10.45;;;-2.70;99.90;;;;;;5034266;28;20021;-70
2022/02/28 03:41:22;;;;;;;20.65;9.48;;;-2.70;99.90;;;;;;5033226;28;20034;-71
2022/02/28 03:43:47;;;;;;;16.77;9.77;;;-2.80;99.90;;;;;;5027186;28;20026;-71
2022/02/28 03:46:14;;;;;;;16.38;8.40;;;-2.70;99.90;;;;;;5014163;28;20375;-71
2022/02/28 03:48:39;;;;;;;17.10;9.45;;;-2.60;99.90;;;;;;5014689;28;20444;-71
2022/02/28 03:51:05;;;;;;;16.52;9.38;;;-2.70;99.90;;;;;;5018117;28;20037;-71
2022/02/28 03:53:31;;;;;;;14.57;8.82;;;-2.60;99.90;;;;;;5033205;28;20034;-71
2022/02/28 03:55:57;;;;;;;19.67;8.88;;;-2.60;99.90;;;;;;5033799;28;20117;-71
2022/02/28 03:58:24;;;;;;;17.30;9.60;;;-2.60;99.90;;;;;;5033342;28;20038;-71
2022/02/28 04:00:49;;;;;;;17.95;9.10;;;-2.60;99.90;;;;;;5033956;28;20052;-70
2022/02/28 04:03:15;;;;;;;16.23;9.13;;;-2.60;99.90;;;;;;5033331;28;20034;-71
2022/02/28 04:05:41;;;;;;;19.13;9.95;;;-2.70;99.90;;;;;;5033989;28;20033;-71
2022/02/28 04:08:07;;;;;;;18.08;9.30;;;-2.70;99.90;;;;;;5033440;28;20029;-70
2022/02/28 04:10:32;;;;;;;18.60;9.60;;;-2.70;99.90;;;;;;5033626;28;20030;-71
2022/02/28 04:12:58;;;;;;;15.48;9.38;;;-2.70;99.90;;;;;;5033251;28;20025;-70
2022/02/28 04:15:24;;;;;;;18.67;10.00;;;-2.70;99.90;;;;;;5032775;28;20164;-71
2022/02/28 04:17:49;;;;;;;18.85;9.75;;;-2.80;99.90;;;;;;5033244;28;20083;-71
2022/02/28 04:20:15;;;;;;;17.60;9.70;;;-2.80;99.90;;;;;;5033172;28;20382;-71
2022/02/28 04:22:41;;;;;;;17.20;9.68;;;-2.90;99.90;;;;;;5032613;28;20056;-71
2022/02/28 04:25:08;;;;;;;20.65;9.77;;;-2.90;99.90;;;;;;5032808;28;20057;-71
2022/02/28 04:27:33;;;;;;;18.17;9.32;;;-2.90;99.90;;;;;;5033147;28;20029;-72
2022/02/28 04:29:59;;;;;;;17.77;9.52;;;-2.90;99.90;;;;;;5033154;28;20029;-71
2022/02/28 04:32:25;;;;;;;22.85;9.30;;;-2.90;99.90;;;;;;5032541;28;20393;-71
2022/02/28 04:34:51;;;;;;;20.23;9.50;;;-2.90;99.90;;;;;;5033628;28;20030;-71
2022/02/28 04:37:16;;;;;;;16.77;8.95;;;-3.00;99.90;;;;;;5032351;28;20099;-71
2022/02/28 04:39:42;;;;;;;18.48;9.63;;;-3.00;99.90;;;;;;5033215;28;20032;-71
2022/02/28 04:42:08;;;;;;;19.70;9.57;;;-3.10;99.90;;;;;;5032621;28;20088;-71
2022/02/28 04:44:34;;;;;;;18.98;9.90;;;-3.10;99.90;;;;;;5019930;28;20030;-72
2022/02/28 04:46:59;;;;;;;15.90;9.95;;;-3.20;99.90;;;;;;5014553;28;20060;-72
2022/02/28 04:49:26;;;;;;;17.15;9.02;;;-3.20;99.90;;;;;;5026062;28;20044;-71
2022/02/28 04:51:51;;;;;;;18.98;10.02;;;-3.20;99.90;;;;;;5032909;28;20037;-71
2022/02/28 04:54:17;;;;;;;16.95;9.75;;;-3.20;99.90;;;;;;5032351;28;20421;-71
2022/02/28 04:56:43;;;;;;;16.40;8.85;;;-3.20;99.90;;;;;;5032946;28;20368;-71
2022/02/28 04:59:08;;;;;;;18.75;10.43;;;-3.20;99.90;;;;;;5032603;28;20072;-70
2022/02/28 05:01:34;;;;;;;20.60;9.77;;;-3.20;99.90;;;;;;5032478;28;20048;-70
2022/02/28 05:04:00;;;;;;;17.60;10.38;;;-3.20;99.90;;;;;;5032522;28;20030;-70
2022/02/28 05:06:26;;;;;;;19.50;10.63;;;-3.30;99.90;;;;;;5032165;28;20132;-71
2022/02/28 05:08:51;;;;;;;20.52;10.82;;;-3.30;99.90;;;;;;5032557;28;20030;-71
2022/02/28 05:11:17;;;;;;;18.17;10.65;;;-3.20;99.90;;;;;;5031873;28;20057;-71
2022/02/28 05:13:43;;;;;;;19.95;10.98;;;-3.30;99.90;;;;;;5032276;28;20083;-71
2022/02/28 05:16:09;;;;;;;20.60;11.00;;;-3.30;99.90;;;;;;5032256;28;20060;-72
2022/02/28 05:18:35;;;;;;;22.85;11.05;;;-3.30;99.90;;;;;;5031973;28;20537;-71
2022/02/28 05:21:01;;;;;;;21.20;11.07;;;-3.30;99.90;;;;;;5032259;28;20045;-71
2022/02/28 05:23:27;;;;;;;24.52;11.80;;;-3.30;99.90;;;;;;5031482;28;20068;-71
2022/02/28 05:25:52;;;;;;;20.73;11.27;;;-3.30;99.90;;;;;;5032290;28;20108;-71
2022/02/28 05:28:18;;;;;;;20.55;10.30;;;-3.30;99.90;;;;;;5031831;28;20036;-71
2022/02/28 05:30:47;;;;;;;20.05;11.05;;;-3.30;99.90;;;;;;5032482;28;20056;-72
2022/02/28 05:33:14;;;;;;;23.45;11.82;;;-3.30;99.90;;;;;;5032961;28;20021;-71
2022/02/28 05:35:39;;;;;;;25.80;11.35;;;-3.30;99.90;;;;;;5037087;28;20454;-71
2022/02/28 05:38:05;;;;;;;22.45;11.57;;;-3.30;99.90;;;;;;5046309;28;20030;-71
2022/02/28 05:40:32;;;;;;;18.77;10.60;;;-3.30;99.90;;;;;;5037991;28;20038;-73
2022/02/28 05:42:57;;;;;;;19.08;10.82;;;-3.20;99.90;;;;;;5031964;28;20112;-72
2022/02/28 05:45:23;;;;;;;22.02;11.38;;;-3.20;99.90;;;;;;5011537;28;20065;-72
2022/02/28 05:47:49;;;;;;;19.38;10.90;;;-3.20;99.90;;;;;;5012515;28;20376;-71
2022/02/28 05:50:15;;;;;;;20.77;10.23;;;-3.10;99.90;;;;;;5012159;28;20030;-72
2022/02/28 05:52:40;;;;;;;19.55;10.63;;;-3.20;99.90;;;;;;5026897;28;20112;-71
2022/02/28 05:55:07;;;;;;;21.98;11.30;;;-3.20;99.90;;;;;;5033065;28;20083;-70
2022/02/28 05:57:39;;;;;;;19.92;11.02;;;-3.20;99.90;;;;;;5025514;28;20065;-71
2022/02/28 06:00:07;;;;;;;21.08;10.95;;;-3.10;99.90;;;;;;5022611;28;20030;-70
2022/02/28 06:02:33;;;;;;;21.58;11.18;;;-3.20;99.90;;;;;;5021499;28;20368;-70
2022/02/28 06:04:59;;;;;;;21.05;10.60;;;-3.10;99.90;;;;;;5022132;28;20044;-71
2022/02/28 06:07:25;;;;;;;21.75;11.88;;;-3.10;99.90;;;;;;5021391;28;20467;-73
2022/02/28 06:09:50;;;;;;;18.95;10.70;;;-3.10;99.90;;;;;;5020413;28;20037;-72
2022/02/28 06:12:16;;;;;;;22.17;11.32;;;-3.10;99.90;;;;;;5025309;28;20037;-71
2022/02/28 06:14:42;;;;;;;24.77;11.98;;;-3.10;99.90;;;;;;5024222;28;20041;-71
2022/02/28 06:17:08;;;;;;;22.15;11.18;;;-3.10;99.90;;;;;;5025118;28;20026;-71
2022/02/28 06:19:34;;;;;;;24.33;11.93;;;-3.10;99.90;;;;;;5021379;28;20603;-70
2022/02/28 06:21:59;;;;;;;23.88;12.68;;;-3.10;99.90;;;;;;5027326;28;20041;-71
2022/02/28 06:24:25;;;;;;;19.23;10.95;;;-3.10;99.90;;;;;;5031524;28;20092;-71
2022/02/28 06:26:52;;;;;;;20.75;11.23;;;-3.10;99.90;;;;;;5031905;28;20030;-71
2022/02/28 06:29:17;;;;;;;23.95;10.77;;;-3.10;99.90;;;;;;5030687;28;20030;-69
2022/02/28 06:31:44;;;;;;;25.73;11.90;;;-3.10;99.90;;;;;;5031443;28;20035;-70
2022/02/28 06:34:13;;;;;;;21.50;11.88;;;-3.10;99.90;;;;;;5031114;28;20410;-71
2022/02/28 06:36:40;;;;;;;23.92;12.82;;;-3.10;99.90;;;;;;5031205;28;20030;-71
2022/02/28 06:39:07;;;;;;;23.67;12.05;;;-3.10;99.90;;;;;;5031873;28;20029;-71
2022/02/28 06:41:32;;;;;;;24.55;12.55;;;-3.10;99.90;;;;;;5031077;28;20033;-71
2022/02/28 06:43:58;;;;;;;25.05;12.50;;;-3.10;99.90;;;;;;5023696;28;20033;-72
2022/02/28 06:46:24;;;;;;;36.22;15.10;;;-3.10;99.90;;;;;;5011206;28;20081;-71
2022/02/28 06:48:50;;;;;;;27.02;12.77;;;-3.00;99.90;;;;;;5015696;28;20034;-75
2022/02/28 06:51:16;;;;;;;22.70;12.48;;;-3.00;99.90;;;;;;5021268;28;20038;-73
2022/02/28 06:53:42;;;;;;;23.88;12.48;;;-3.00;99.90;;;;;;5035445;28;20029;-72
2022/02/28 06:56:08;;;;;;;25.98;12.48;;;-3.00;99.90;;;;;;5035141;28;20052;-71
2022/02/28 06:58:34;;;;;;;22.70;11.65;;;-3.00;99.90;;;;;;5035277;28;20029;-72
2022/02/28 07:01:00;;;;;;;26.45;11.88;;;-3.00;99.90;;;;;;5034714;28;20053;-71
2022/02/28 07:03:25;;;;;;;30.98;13.27;;;-2.90;99.90;;;;;;5033972;28;20033;-72
2022/02/28 07:05:52;;;;;;;25.90;13.10;;;-2.90;99.90;;;;;;5035468;28;20108;-72
2022/02/28 07:08:20;;;;;;;29.33;13.85;;;-2.80;99.90;;;;;;5034246;28;20036;-70
2022/02/28 07:10:46;;;;;;;25.38;12.88;;;-2.70;99.90;;;;;;5034546;28;20387;-76
2022/02/28 07:13:13;;;;;;;25.48;12.07;;;-2.70;99.90;;;;;;5035165;28;20083;-73
2022/02/28 07:15:43;;;;;;;22.60;11.95;;;-2.60;99.90;;;;;;5034099;28;20049;-76
2022/02/28 07:18:09;;;;;;;26.30;12.43;;;-2.60;99.90;;;;;;5034928;28;20033;-76
2022/02/28 07:20:35;;;;;;;23.15;12.00;;;-2.50;99.90;;;;;;5033475;28;20034;-74
2022/02/28 07:23:02;;;;;;;21.67;12.00;;;-2.50;99.90;;;;;;5034821;28;20049;-74
2022/02/28 07:25:28;;;;;;;22.55;11.55;;;-2.40;99.90;;;;;;5033263;28;20041;-77
2022/02/28 07:27:54;;;;;;;21.13;12.02;;;-2.30;99.90;;;;;;5034579;28;20033;-74
2022/02/28 07:30:20;;;;;;;21.48;12.73;;;-2.20;99.90;;;;;;5027726;28;20025;-74
2022/02/28 07:32:45;;;;;;;24.23;12.52;;;-2.10;99.90;;;;;;5014892;28;20033;-74
2022/02/28 07:35:11;;;;;;;22.92;11.65;;;-2.10;99.90;;;;;;5024517;28;20029;-70
2022/02/28 07:37:37;;;;;;;25.98;11.88;;;-2.00;99.90;;;;;;5033553;28;20193;-71
2022/02/28 07:40:08;;;;;;;23.58;12.35;;;-1.90;99.90;;;;;;5034100;28;20156;-76
2022/02/28 07:42:34;;;;;;;21.00;11.15;;;-1.80;99.90;;;;;;5033168;28;20040;-73
2022/02/28 07:45:00;;;;;;;27.23;12.73;;;-1.70;99.90;;;;;;5028725;28;20063;-73
2022/02/28 07:47:26;;;;;;;29.15;12.73;;;-1.60;99.90;;;;;;5019976;28;20099;-73
2022/02/28 07:49:52;;;;;;;28.88;13.05;;;-1.40;99.90;;;;;;5033610;28;20057;-72
2022/02/28 07:52:18;;;;;;;24.92;12.50;;;-1.30;99.90;;;;;;5033987;28;20038;-71
2022/02/28 07:54:43;;;;;;;25.85;12.98;;;-1.20;99.90;;;;;;5033745;28;20032;-73
2022/02/28 07:57:09;;;;;;;24.83;12.68;;;-1.10;99.90;;;;;;5032084;28;20032;-73
2022/02/28 07:59:34;;;;;;;21.52;12.07;;;-1.00;99.90;;;;;;5030755;28;20520;-73
2022/02/28 08:02:00;;;;;;;24.00;11.85;;;-0.90;99.90;;;;;;5033448;28;20076;-72
2022/02/28 08:04:26;;;;;;;22.55;11.90;;;-0.80;99.90;;;;;;5031251;28;20072;-72
2022/02/28 08:06:51;;;;;;;23.02;11.95;;;-0.70;99.90;;;;;;5031301;28;20025;-72
2022/02/28 08:09:19;;;;;;;23.35;12.23;;;-0.60;99.90;;;;;;5031618;28;20030;-73
2022/02/28 08:11:45;;;;;;;22.95;13.45;;;-0.60;99.90;;;;;;5031878;28;20032;-73
2022/02/28 08:14:10;;;;;;;22.42;12.50;;;-0.40;99.90;;;;;;5030752;28;20026;-71
2022/02/28 08:16:36;;;;;;;28.65;14.35;;;-0.30;99.90;;;;;;5029571;28;20049;-72
2022/02/28 08:19:02;;;;;;;26.30;14.52;;;-0.20;99.90;;;;;;5032243;28;20057;-72
2022/02/28 08:21:28;;;;;;;28.85;14.77;;;0.00;99.90;;;;;;5031520;28;20128;-72
2022/02/28 08:23:53;;;;;;;35.72;15.65;;;0.20;99.90;;;;;;5032626;28;20109;-71
2022/02/28 08:26:19;;;;;;;29.27;14.48;;;0.40;99.90;;;;;;5032852;28;20038;-71
2022/02/28 08:28:45;;;;;;;34.47;14.95;;;0.60;99.90;;;;;;5032424;28;20037;-73
2022/02/28 08:31:10;;;;;;;38.55;16.10;;;0.60;99.90;;;;;;5032853;28;20029;-74
2022/02/28 08:33:36;;;;;;;40.55;16.10;;;0.80;99.90;;;;;;5032293;28;20064;-73
2022/02/28 08:36:02;;;;;;;37.80;16.08;;;0.90;99.90;;;;;;5032790;28;20433;-72
2022/02/28 08:38:27;;;;;;;36.65;16.05;;;1.00;99.90;;;;;;5033290;28;20026;-73
2022/02/28 08:40:53;;;;;;;45.25;16.63;;;1.10;99.90;;;;;;5033418;28;20736;-73
2022/02/28 08:43:19;;;;;;;35.25;15.15;;;1.30;99.90;;;;;;5028848;28;20065;-72
2022/02/28 08:45:44;;;;;;;40.55;15.45;;;1.40;99.90;;;;;;5030686;28;20040;-72
2022/02/28 08:48:10;;;;;;;44.28;17.05;;;1.70;99.90;;;;;;5031691;28;20033;-73
2022/02/28 08:50:37;;;;;;;34.95;15.63;;;1.80;99.90;;;;;;5031523;28;20087;-72
2022/02/28 08:53:03;;;;;;;29.50;14.85;;;1.80;99.90;;;;;;5031584;28;20029;-72
2022/02/28 08:55:28;;;;;;;34.22;15.32;;;2.00;99.90;;;;;;5032263;28;20095;-73
2022/02/28 08:57:54;;;;;;;29.23;14.77;;;2.20;99.90;;;;;;5032442;28;20062;-72
2022/02/28 09:00:20;;;;;;;31.52;13.68;;;2.20;99.90;;;;;;5032414;28;20025;-71
2022/02/28 09:02:45;;;;;;;35.95;16.40;;;2.30;99.90;;;;;;5030686;28;20052;-72
2022/02/28 09:05:11;;;;;;;31.00;14.70;;;2.40;99.90;;;;;;5032367;28;20418;-73
2022/02/28 09:07:37;;;;;;;37.92;16.35;;;2.40;99.90;;;;;;5030911;28;20363;-73
2022/02/28 09:10:04;;;;;;;39.15;16.85;;;2.50;99.90;;;;;;5032135;28;20072;-73
2022/02/28 09:12:30;;;;;;;39.47;15.13;;;2.50;99.90;;;;;;5012601;28;20033;-73
2022/02/28 09:14:56;;;;;;;30.63;15.73;;;2.60;99.90;;;;;;5026244;28;20049;-73
2022/02/28 09:17:21;;;;;;;27.52;14.45;;;2.70;99.90;;;;;;5043728;28;20401;-71
2022/02/28 09:19:47;;;;;;;33.53;14.55;;;2.70;99.90;;;;;;5032194;28;20025;-73
2022/02/28 09:22:13;;;;;;;25.35;14.50;;;2.80;99.90;;;;;;5031509;28;20033;-73
2022/02/28 09:24:38;;;;;;;29.35;14.73;;;2.90;99.90;;;;;;5030705;28;20113;-73
2022/02/28 09:27:07;;;;;;;31.60;14.95;;;3.10;99.90;;;;;;5031938;28;20520;-73
2022/02/28 09:29:33;;;;;;;28.00;14.95;;;3.10;99.80;;;;;;5029574;28;20033;-73
2022/02/28 09:32:01;;;;;;;27.60;14.48;;;3.20;99.60;;;;;;5032066;28;20064;-73
2022/02/28 09:34:26;;;;;;;26.23;13.63;;;3.20;98.90;;;;;;5031461;28;20033;-73
2022/02/28 09:36:52;;;;;;;21.67;12.02;;;3.40;97.00;;;;;;5031610;28;20029;-74
2022/02/28 09:39:19;;;;;;;30.63;14.57;;;3.60;95.40;;;;;;5032265;28;20032;-73
2022/02/28 09:41:45;;;;;;;28.80;14.80;;;3.60;96.30;;;;;;5032780;28;20041;-73
2022/02/28 09:44:14;;;;;;;26.48;13.43;;;3.80;95.80;;;;;;5031812;28;20029;-73
2022/02/28 09:46:42;;;;;;;29.70;13.40;;;3.90;95.20;;;;;;5031223;28;20455;-73
2022/02/28 09:49:08;;;;;;;28.02;12.55;;;4.00;93.20;;;;;;5031533;28;20455;-73
2022/02/28 09:51:34;;;;;;;22.73;12.25;;;4.20;92.60;;;;;;5030894;28;20044;-73
2022/02/28 09:54:00;;;;;;;23.30;11.23;;;4.30;91.40;;;;;;5031489;28;20379;-73
2022/02/28 09:56:26;;;;;;;21.70;12.20;;;4.30;91.80;;;;;;5030882;28;20052;-73
2022/02/28 09:58:52;;;;;;;23.15;12.48;;;4.30;91.80;;;;;;5031727;28;20056;-73
2022/02/28 10:01:19;;;;;;;26.98;12.70;;;4.40;91.00;;;;;;5031542;28;20042;-73
2022/02/28 10:03:45;;;;;;;25.52;12.60;;;4.60;87.40;;;;;;5031197;28;20034;-72
2022/02/28 10:06:10;;;;;;;20.73;11.27;;;4.70;89.30;;;;;;5031591;28;20363;-73
2022/02/28 10:08:48;;;;;;;24.23;12.77;;;4.70;87.20;;;;;;5031209;28;20079;-73
2022/02/28 10:11:29;;;;;;;20.98;11.27;;;4.80;84.80;;;;;;5031565;28;20451;-73
2022/02/28 10:13:59;;;;;;;25.67;11.20;;;4.90;85.20;;;;;;5025169;28;20029;-73
2022/02/28 10:16:34;;;;;;;18.10;9.27;;;5.10;84.00;;;;;;5020279;28;20046;-73
2022/02/28 10:19:01;;;;;;;18.27;10.57;;;5.30;86.20;;;;;;5031388;28;20052;-74
2022/02/28 10:21:39;;;;;;;20.85;12.05;;;5.30;77.90;;;;;;5030583;28;20106;-73
2022/02/28 10:24:07;;;;;;;20.50;11.88;;;5.50;78.50;;;;;;5037766;28;20367;-72
2022/02/28 10:26:44;;;;;;;17.25;10.45;;;5.80;75.90;;;;;;5041179;28;20386;-73
2022/02/28 10:29:15;;;;;;;24.65;12.02;;;5.90;77.10;;;;;;5035273;28;20510;-74
2022/02/28 10:31:44;;;;;;;19.85;11.07;;;5.90;77.10;;;;;;5034087;28;20120;-74
2022/02/28 10:34:19;;;;;;;19.27;11.07;;;6.10;74.50;;;;;;5027039;28;20037;-73
2022/02/28 10:36:58;;;;;;;17.02;10.07;;;6.10;75.50;;;;;;5034197;28;20440;-73
2022/02/28 10:39:26;;;;;;;19.77;10.98;;;6.10;75.30;;;;;;5034013;28;20394;-73
2022/02/28 10:41:55;;;;;;;21.25;11.02;;;6.20;73.40;;;;;;5034297;28;20571;-73
2022/02/28 10:44:21;;;;;;;22.60;11.00;;;6.30;71.00;;;;;;5034506;28;20399;-73
2022/02/28 10:46:48;;;;;;;20.00;11.13;;;6.40;70.40;;;;;;5033516;28;20034;-73
2022/02/28 10:49:16;;;;;;;17.70;9.75;;;6.40;70.90;;;;;;5034307;28;20104;-73
2022/02/28 10:51:54;;;;;;;19.83;10.43;;;6.50;69.70;;;;;;5033462;28;20034;-73
2022/02/28 10:54:31;;;;;;;16.13;9.55;;;6.60;69.40;;;;;;5032828;28;20475;-73
2022/02/28 10:57:06;;;;;;;17.13;9.63;;;6.70;69.20;;;;;;5032110;28;20017;-73
2022/02/28 10:59:40;;;;;;;23.15;11.23;;;6.80;68.50;;;;;;5033899;28;20163;-73
2022/02/28 11:02:06;;;;;;;17.88;9.60;;;7.00;65.90;;;;;;5033946;28;20470;-73
2022/02/28 11:04:41;;;;;;;15.93;9.35;;;7.10;65.80;;;;;;5033871;28;20021;-73
2022/02/28 11:07:10;;;;;;;16.90;10.82;;;7.10;66.00;;;;;;5034356;28;20028;-73
2022/02/28 11:09:42;;;;;;;23.45;11.30;;;7.10;66.20;;;;;;5033922;28;20025;-74
2022/02/28 11:12:25;;;;;;;18.45;10.18;;;7.30;65.80;;;;;;5034475;28;20040;-75
2022/02/28 11:14:54;;;;;;;18.23;9.98;;;7.50;64.00;;;;;;5033321;28;20046;-75
2022/02/28 11:17:22;;;;;;;17.92;10.38;;;7.50;63.50;;;;;;5034134;28;20112;-75
2022/02/28 11:19:50;;;;;;;17.73;9.93;;;7.60;62.70;;;;;;5032612;28;20033;-74
2022/02/28 11:22:17;;;;;;;18.55;10.63;;;7.70;61.80;;;;;;5033463;28;20041;-73
2022/02/28 11:24:44;;;;;;;14.68;9.05;;;7.80;60.50;;;;;;5033467;28;20041;-74
2022/02/28 11:27:10;;;;;;;14.48;9.35;;;7.70;60.70;;;;;;5033715;28;20048;-72
2022/02/28 11:29:37;;;;;;;14.07;9.25;;;7.70;61.10;;;;;;5033288;28;20041;-74
2022/02/28 11:32:06;;;;;;;19.83;9.38;;;7.80;60.90;;;;;;5033490;28;20410;-73
2022/02/28 11:34:31;;;;;;;13.13;8.90;;;7.90;60.40;;;;;;5031963;28;20037;-72
2022/02/28 11:37:01;;;;;;;16.42;9.25;;;8.00;58.70;;;;;;5033840;28;20030;-73
2022/02/28 11:39:41;;;;;;;14.95;9.98;;;8.00;59.00;;;;;;5032411;28;20029;-74
2022/02/28 11:42:08;;;;;;;16.60;10.00;;;8.00;58.40;;;;;;5033550;28;20044;-73
2022/02/28 11:44:54;;;;;;;17.50;10.00;;;8.00;58.10;;;;;;5031189;28;20026;-73
2022/02/28 11:47:20;;;;;;;13.80;8.93;;;8.00;57.90;;;;;;5032592;28;20047;-73
2022/02/28 11:49:47;;;;;;;14.00;8.23;;;8.00;57.40;;;;;;5032738;28;20041;-72
2022/02/28 11:52:33;;;;;;;18.02;9.68;;;8.00;57.20;;;;;;5033052;28;20038;-72
2022/02/28 11:55:09;;;;;;;13.75;9.07;;;8.20;57.20;;;;;;5033821;28;20026;-72
2022/02/28 11:58:00;;;;;;;18.60;9.35;;;8.30;57.00;;;;;;5019848;28;20061;-73
2022/02/28 12:00:47;;;;;;;15.88;9.75;;;8.60;56.10;;;;;;5016508;28;20029;-72
2022/02/28 12:03:29;;;;;;;15.18;9.50;;;8.70;55.60;;;;;;5047451;28;20097;-75
2022/02/28 12:05:56;;;;;;;13.60;8.05;;;8.90;54.50;;;;;;5049202;28;20132;-75
2022/02/28 12:08:39;;;;;;;17.83;9.48;;;8.90;54.40;;;;;;5033220;28;20029;-73
2022/02/28 12:11:22;;;;;;;16.25;8.55;;;8.90;54.40;;;;;;5033347;28;20427;-73
2022/02/28 12:14:14;;;;;;;16.23;9.32;;;9.00;54.10;;;;;;5032820;28;20021;-72
2022/02/28 12:19:30;;;;;;;23.40;10.85;;;9.10;54.50;;;;;;5035392;28;20036;-74
2022/02/28 12:22:05;;;;;;;18.13;8.93;;;9.50;54.10;;;;;;5032539;28;20041;-74
2022/02/28 12:24:53;;;;;;;16.20;8.82;;;9.80;53.40;;;;;;5032533;28;20029;-74
2022/02/28 12:27:18;;;;;;;14.70;9.63;;;10.50;51.50;;;;;;5023337;28;20026;-74
2022/02/28 12:29:45;;;;;;;14.00;9.88;;;10.70;51.50;;;;;;5023097;28;20091;-74
2022/02/28 12:32:11;;;;;;;13.93;8.27;;;11.10;48.70;;;;;;5030439;28;20092;-75
2022/02/28 12:34:36;;;;;;;15.13;9.02;;;11.40;48.70;;;;;;5032307;28;20030;-74
2022/02/28 12:37:02;;;;;;;13.65;9.50;;;11.50;48.70;;;;;;5032590;28;20171;-75
2022/02/28 12:39:28;;;;;;;13.90;9.43;;;11.70;48.30;;;;;;5031695;28;20037;-73